sensor_id;sensor_type;location;lat;lon;timestamp;P1;durP1;ratioP1;P2;durP2;ratioP2
4636;SDS011;2331;48.806;9.140;2023-12-20T00:01:28;2.20;;;1.67;;
4636;SDS011;2331;48.806;9.140;2023-12-20T00:03:55;2.25;;;1.60;;
4636;SDS011;2331;48.806;9.140;2023-12-20T00:06:22;4.22;;;1.85;;
4636;SDS011;2331;48.806;9.140;2023-12-20T00:08:49;2.00;;;1.50;;
4636;SDS011;2331;48.806;9.140;2023-12-20T00:11:15;2.10;;;1.50;;
4636;SDS011;2331;48.806;9.140;2023-12-20T00:13:42;1.80;;;1.23;;
4636;SDS011;2331;48.806;9.140;2023-12-20T00:16:09;1.87;;;1.50;;
4636;SDS011;2331;48.806;9.140;2023-12-20T00:18:36;2.30;;;1.30;;
4636;SDS011;2331;48.806;9.140;2023-12-20T00:21:03;1.80;;;1.40;;
4636;SDS011;2331;48.806;9.140;2023-12-20T00:23:29;1.60;;;1.23;;
4636;SDS011;2331;48.806;9.140;2023-12-20T00:25:56;1.70;;;1.48;;
4636;SDS011;2331;48.806;9.140;2023-12-20T00:28:23;2.45;;;1.45;;
4636;SDS011;2331;48.806;9.140;2023-12-20T00:30:50;1.60;;;1.25;;
4636;SDS011;2331;48.806;9.140;2023-12-20T00:33:18;1.33;;;1.10;;
4636;SDS011;2331;48.806;9.140;2023-12-20T00:35:44;2.65;;;1.55;;
4636;SDS011;2331;48.806;9.140;2023-12-20T00:38:11;1.83;;;1.40;;
4636;SDS011;2331;48.806;9.140;2023-12-20T00:40:38;3.45;;;1.42;;
4636;SDS011;2331;48.806;9.140;2023-12-20T00:43:04;2.17;;;1.50;;
4636;SDS011;2331;48.806;9.140;2023-12-20T00:45:31;2.28;;;1.17;;
4636;SDS011;2331;48.806;9.140;2023-12-20T00:47:58;2.08;;;1.33;;
4636;SDS011;2331;48.806;9.140;2023-12-20T00:50:26;1.83;;;1.13;;
4636;SDS011;2331;48.806;9.140;2023-12-20T00:52:53;1.90;;;1.20;;
4636;SDS011;2331;48.806;9.140;2023-12-20T00:55:21;1.80;;;1.00;;
4636;SDS011;2331;48.806;9.140;2023-12-20T00:57:47;1.70;;;1.30;;
4636;SDS011;2331;48.806;9.140;2023-12-20T01:00:14;1.52;;;1.27;;
4636;SDS011;2331;48.806;9.140;2023-12-20T01:02:41;1.55;;;1.30;;
4636;SDS011;2331;48.806;9.140;2023-12-20T01:05:08;1.63;;;1.30;;
4636;SDS011;2331;48.806;9.140;2023-12-20T01:07:36;1.67;;;1.35;;
4636;SDS011;2331;48.806;9.140;2023-12-20T01:10:03;1.75;;;1.33;;
4636;SDS011;2331;48.806;9.140;2023-12-20T01:12:30;2.00;;;1.30;;
4636;SDS011;2331;48.806;9.140;2023-12-20T01:14:56;1.45;;;1.20;;
4636;SDS011;2331;48.806;9.140;2023-12-20T01:17:23;1.25;;;1.00;;
4636;SDS011;2331;48.806;9.140;2023-12-20T01:19:50;2.30;;;1.30;;
4636;SDS011;2331;48.806;9.140;2023-12-20T01:22:17;1.17;;;0.98;;
4636;SDS011;2331;48.806;9.140;2023-12-20T01:24:45;1.50;;;0.95;;
4636;SDS011;2331;48.806;9.140;2023-12-20T01:27:12;1.85;;;1.05;;
4636;SDS011;2331;48.806;9.140;2023-12-20T01:29:38;1.50;;;1.00;;
4636;SDS011;2331;48.806;9.140;2023-12-20T01:32:05;2.20;;;1.45;;
4636;SDS011;2331;48.806;9.140;2023-12-20T01:34:32;1.80;;;1.25;;
4636;SDS011;2331;48.806;9.140;2023-12-20T01:36:59;1.70;;;1.13;;
4636;SDS011;2331;48.806;9.140;2023-12-20T01:39:26;1.50;;;1.10;;
4636;SDS011;2331;48.806;9.140;2023-12-20T01:41:54;2.17;;;1.40;;
4636;SDS011;2331;48.806;9.140;2023-12-20T01:44:21;2.03;;;1.45;;
4636;SDS011;2331;48.806;9.140;2023-12-20T01:46:47;3.38;;;1.52;;
4636;SDS011;2331;48.806;9.140;2023-12-20T01:49:14;2.55;;;1.20;;
4636;SDS011;2331;48.806;9.140;2023-12-20T01:51:41;2.20;;;1.50;;
4636;SDS011;2331;48.806;9.140;2023-12-20T01:54:08;1.67;;;1.13;;
4636;SDS011;2331;48.806;9.140;2023-12-20T01:56:35;6.18;;;1.80;;
4636;SDS011;2331;48.806;9.140;2023-12-20T01:59:03;1.50;;;1.10;;
4636;SDS011;2331;48.806;9.140;2023-12-20T02:01:30;2.65;;;1.75;;
4636;SDS011;2331;48.806;9.140;2023-12-20T02:03:57;2.30;;;1.50;;
4636;SDS011;2331;48.806;9.140;2023-12-20T02:06:24;2.40;;;1.50;;
4636;SDS011;2331;48.806;9.140;2023-12-20T02:08:56;1.88;;;1.33;;
4636;SDS011;2331;48.806;9.140;2023-12-20T02:11:22;1.67;;;1.42;;
4636;SDS011;2331;48.806;9.140;2023-12-20T02:13:50;1.75;;;1.50;;
4636;SDS011;2331;48.806;9.140;2023-12-20T02:16:18;2.13;;;1.60;;
4636;SDS011;2331;48.806;9.140;2023-12-20T02:18:45;1.63;;;1.30;;
4636;SDS011;2331;48.806;9.140;2023-12-20T02:21:11;1.65;;;1.00;;
4636;SDS011;2331;48.806;9.140;2023-12-20T02:23:39;1.60;;;1.30;;
4636;SDS011;2331;48.806;9.140;2023-12-20T02:26:06;2.80;;;1.20;;
4636;SDS011;2331;48.806;9.140;2023-12-20T02:28:33;1.08;;;0.82;;
4636;SDS011;2331;48.806;9.140;2023-12-20T02:31:00;1.70;;;1.13;;
4636;SDS011;2331;48.806;9.140;2023-12-20T02:33:27;1.30;;;1.20;;
4636;SDS011;2331;48.806;9.140;2023-12-20T02:35:54;1.23;;;1.00;;
4636;SDS011;2331;48.806;9.140;2023-12-20T02:38:21;1.70;;;1.20;;
4636;SDS011;2331;48.806;9.140;2023-12-20T02:40:49;2.20;;;1.33;;
4636;SDS011;2331;48.806;9.140;2023-12-20T02:43:15;1.75;;;1.10;;
4636;SDS011;2331;48.806;9.140;2023-12-20T02:45:42;2.40;;;1.30;;
4636;SDS011;2331;48.806;9.140;2023-12-20T02:48:08;1.80;;;1.20;;
4636;SDS011;2331;48.806;9.140;2023-12-20T02:50:35;2.42;;;1.40;;
4636;SDS011;2331;48.806;9.140;2023-12-20T02:53:02;1.77;;;1.10;;
4636;SDS011;2331;48.806;9.140;2023-12-20T02:58:52;1.90;;;1.48;;
4636;SDS011;2331;48.806;9.140;2023-12-20T03:01:19;2.17;;;1.65;;
4636;SDS011;2331;48.806;9.140;2023-12-20T03:03:47;2.05;;;1.10;;
4636;SDS011;2331;48.806;9.140;2023-12-20T03:06:15;1.50;;;0.93;;
4636;SDS011;2331;48.806;9.140;2023-12-20T03:08:43;1.20;;;1.00;;
4636;SDS011;2331;48.806;9.140;2023-12-20T03:11:10;2.33;;;0.90;;
4636;SDS011;2331;48.806;9.140;2023-12-20T03:13:37;0.80;;;0.70;;
4636;SDS011;2331;48.806;9.140;2023-12-20T03:16:09;1.30;;;0.60;;
4636;SDS011;2331;48.806;9.140;2023-12-20T03:18:37;0.80;;;0.50;;
4636;SDS011;2331;48.806;9.140;2023-12-20T03:21:04;0.70;;;0.50;;
4636;SDS011;2331;48.806;9.140;2023-12-20T03:23:31;0.80;;;0.60;;
4636;SDS011;2331;48.806;9.140;2023-12-20T03:25:59;0.70;;;0.60;;
4636;SDS011;2331;48.806;9.140;2023-12-20T03:28:27;0.70;;;0.50;;
4636;SDS011;2331;48.806;9.140;2023-12-20T03:30:54;1.55;;;0.82;;
4636;SDS011;2331;48.806;9.140;2023-12-20T03:33:22;0.80;;;0.57;;
4636;SDS011;2331;48.806;9.140;2023-12-20T03:35:48;0.70;;;0.50;;
4636;SDS011;2331;48.806;9.140;2023-12-20T03:38:15;0.60;;;0.40;;
4636;SDS011;2331;48.806;9.140;2023-12-20T03:40:42;1.08;;;0.70;;
4636;SDS011;2331;48.806;9.140;2023-12-20T03:43:09;0.70;;;0.43;;
4636;SDS011;2331;48.806;9.140;2023-12-20T03:45:35;0.70;;;0.50;;
4636;SDS011;2331;48.806;9.140;2023-12-20T03:48:02;0.70;;;0.50;;
4636;SDS011;2331;48.806;9.140;2023-12-20T03:50:31;0.70;;;0.40;;
4636;SDS011;2331;48.806;9.140;2023-12-20T03:52:58;1.02;;;0.50;;
4636;SDS011;2331;48.806;9.140;2023-12-20T03:55:24;1.10;;;0.47;;
4636;SDS011;2331;48.806;9.140;2023-12-20T03:57:51;0.70;;;0.50;;
4636;SDS011;2331;48.806;9.140;2023-12-20T04:00:18;1.35;;;0.50;;
4636;SDS011;2331;48.806;9.140;2023-12-20T04:02:45;0.85;;;0.60;;
4636;SDS011;2331;48.806;9.140;2023-12-20T04:05:12;0.85;;;0.50;;
4636;SDS011;2331;48.806;9.140;2023-12-20T04:07:40;1.23;;;0.60;;
4636;SDS011;2331;48.806;9.140;2023-12-20T04:10:07;0.70;;;0.50;;
4636;SDS011;2331;48.806;9.140;2023-12-20T04:12:34;0.60;;;0.50;;
4636;SDS011;2331;48.806;9.140;2023-12-20T04:15:00;1.30;;;0.50;;
4636;SDS011;2331;48.806;9.140;2023-12-20T04:17:31;0.60;;;0.40;;
4636;SDS011;2331;48.806;9.140;2023-12-20T04:19:58;2.13;;;0.60;;
4636;SDS011;2331;48.806;9.140;2023-12-20T04:22:24;0.82;;;0.50;;
4636;SDS011;2331;48.806;9.140;2023-12-20T04:24:52;0.60;;;0.50;;
4636;SDS011;2331;48.806;9.140;2023-12-20T04:27:19;0.80;;;0.50;;
4636;SDS011;2331;48.806;9.140;2023-12-20T04:29:46;0.90;;;0.50;;
4636;SDS011;2331;48.806;9.140;2023-12-20T04:32:13;1.00;;;0.40;;
4636;SDS011;2331;48.806;9.140;2023-12-20T04:34:39;0.70;;;0.50;;
4636;SDS011;2331;48.806;9.140;2023-12-20T04:37:06;0.70;;;0.60;;
4636;SDS011;2331;48.806;9.140;2023-12-20T04:39:33;1.63;;;0.45;;
4636;SDS011;2331;48.806;9.140;2023-12-20T04:42:00;1.25;;;0.60;;
4636;SDS011;2331;48.806;9.140;2023-12-20T04:44:27;1.00;;;0.50;;
4636;SDS011;2331;48.806;9.140;2023-12-20T04:46:55;0.60;;;0.43;;
4636;SDS011;2331;48.806;9.140;2023-12-20T04:49:22;1.80;;;0.68;;
4636;SDS011;2331;48.806;9.140;2023-12-20T04:51:49;0.90;;;0.45;;
4636;SDS011;2331;48.806;9.140;2023-12-20T04:54:16;0.70;;;0.47;;
4636;SDS011;2331;48.806;9.140;2023-12-20T04:56:42;0.73;;;0.50;;
4636;SDS011;2331;48.806;9.140;2023-12-20T04:59:10;1.00;;;0.60;;
4636;SDS011;2331;48.806;9.140;2023-12-20T05:01:37;1.52;;;0.50;;
4636;SDS011;2331;48.806;9.140;2023-12-20T05:04:04;0.90;;;0.60;;
4636;SDS011;2331;48.806;9.140;2023-12-20T05:06:29;0.80;;;0.50;;
4636;SDS011;2331;48.806;9.140;2023-12-20T05:08:56;0.90;;;0.50;;
4636;SDS011;2331;48.806;9.140;2023-12-20T05:11:23;0.60;;;0.50;;
4636;SDS011;2331;48.806;9.140;2023-12-20T05:13:49;0.80;;;0.50;;
4636;SDS011;2331;48.806;9.140;2023-12-20T05:16:17;1.27;;;0.70;;
4636;SDS011;2331;48.806;9.140;2023-12-20T05:18:44;0.80;;;0.60;;
4636;SDS011;2331;48.806;9.140;2023-12-20T05:21:11;1.15;;;0.63;;
4636;SDS011;2331;48.806;9.140;2023-12-20T05:23:38;0.75;;;0.60;;
4636;SDS011;2331;48.806;9.140;2023-12-20T05:26:04;1.95;;;1.00;;
4636;SDS011;2331;48.806;9.140;2023-12-20T05:28:31;1.20;;;0.55;;
4636;SDS011;2331;48.806;9.140;2023-12-20T05:30:58;1.15;;;0.70;;
4636;SDS011;2331;48.806;9.140;2023-12-20T05:33:26;0.80;;;0.70;;
4636;SDS011;2331;48.806;9.140;2023-12-20T05:35:52;1.15;;;0.60;;
4636;SDS011;2331;48.806;9.140;2023-12-20T05:38:19;0.70;;;0.50;;
4636;SDS011;2331;48.806;9.140;2023-12-20T05:40:46;0.90;;;0.60;;
4636;SDS011;2331;48.806;9.140;2023-12-20T05:43:13;0.80;;;0.60;;
4636;SDS011;2331;48.806;9.140;2023-12-20T05:45:40;1.50;;;0.60;;
4636;SDS011;2331;48.806;9.140;2023-12-20T05:48:07;0.90;;;0.60;;
4636;SDS011;2331;48.806;9.140;2023-12-20T05:50:35;1.00;;;0.80;;
4636;SDS011;2331;48.806;9.140;2023-12-20T05:53:02;1.00;;;0.60;;
4636;SDS011;2331;48.806;9.140;2023-12-20T05:55:28;2.60;;;0.70;;
4636;SDS011;2331;48.806;9.140;2023-12-20T05:57:55;6.40;;;0.90;;
4636;SDS011;2331;48.806;9.140;2023-12-20T06:00:22;0.98;;;0.70;;
4636;SDS011;2331;48.806;9.140;2023-12-20T06:02:50;0.90;;;0.70;;
4636;SDS011;2331;48.806;9.140;2023-12-20T06:05:16;1.33;;;0.60;;
4636;SDS011;2331;48.806;9.140;2023-12-20T06:07:44;1.10;;;0.60;;
4636;SDS011;2331;48.806;9.140;2023-12-20T06:10:13;0.90;;;0.60;;
4636;SDS011;2331;48.806;9.140;2023-12-20T06:12:40;0.80;;;0.60;;
4636;SDS011;2331;48.806;9.140;2023-12-20T06:15:07;0.77;;;0.57;;
4636;SDS011;2331;48.806;9.140;2023-12-20T06:17:34;0.80;;;0.60;;
4636;SDS011;2331;48.806;9.140;2023-12-20T06:20:01;1.02;;;0.70;;
4636;SDS011;2331;48.806;9.140;2023-12-20T06:22:32;0.80;;;0.60;;
4636;SDS011;2331;48.806;9.140;2023-12-20T06:25:01;2.60;;;0.70;;
4636;SDS011;2331;48.806;9.140;2023-12-20T06:27:28;0.93;;;0.57;;
4636;SDS011;2331;48.806;9.140;2023-12-20T06:29:54;1.02;;;0.60;;
4636;SDS011;2331;48.806;9.140;2023-12-20T06:32:21;1.42;;;0.70;;
4636;SDS011;2331;48.806;9.140;2023-12-20T06:34:49;3.08;;;0.70;;
4636;SDS011;2331;48.806;9.140;2023-12-20T06:37:16;2.05;;;0.95;;
4636;SDS011;2331;48.806;9.140;2023-12-20T06:39:43;2.05;;;0.90;;
4636;SDS011;2331;48.806;9.140;2023-12-20T06:42:11;1.88;;;0.93;;
4636;SDS011;2331;48.806;9.140;2023-12-20T06:44:37;2.55;;;1.00;;
4636;SDS011;2331;48.806;9.140;2023-12-20T06:47:05;1.40;;;1.00;;
4636;SDS011;2331;48.806;9.140;2023-12-20T06:49:31;1.52;;;0.90;;
4636;SDS011;2331;48.806;9.140;2023-12-20T06:51:58;1.25;;;0.88;;
4636;SDS011;2331;48.806;9.140;2023-12-20T06:54:25;2.65;;;0.90;;
4636;SDS011;2331;48.806;9.140;2023-12-20T06:56:51;1.17;;;0.75;;
4636;SDS011;2331;48.806;9.140;2023-12-20T06:59:19;1.58;;;0.82;;
4636;SDS011;2331;48.806;9.140;2023-12-20T07:01:47;1.25;;;0.80;;
4636;SDS011;2331;48.806;9.140;2023-12-20T07:04:14;1.02;;;0.85;;
4636;SDS011;2331;48.806;9.140;2023-12-20T07:06:41;2.55;;;1.15;;
4636;SDS011;2331;48.806;9.140;2023-12-20T07:09:08;3.10;;;1.10;;
4636;SDS011;2331;48.806;9.140;2023-12-20T07:11:35;1.20;;;1.20;;
4636;SDS011;2331;48.806;9.140;2023-12-20T07:14:02;2.08;;;1.75;;
4636;SDS011;2331;48.806;9.140;2023-12-20T07:16:30;2.55;;;1.88;;
4636;SDS011;2331;48.806;9.140;2023-12-20T07:18:57;2.55;;;2.10;;
4636;SDS011;2331;48.806;9.140;2023-12-20T07:21:24;2.25;;;1.88;;
4636;SDS011;2331;48.806;9.140;2023-12-20T07:23:50;4.15;;;2.50;;
4636;SDS011;2331;48.806;9.140;2023-12-20T07:26:17;3.00;;;2.33;;
4636;SDS011;2331;48.806;9.140;2023-12-20T07:28:44;3.15;;;2.20;;
4636;SDS011;2331;48.806;9.140;2023-12-20T07:31:11;2.85;;;2.13;;
4636;SDS011;2331;48.806;9.140;2023-12-20T07:33:40;2.75;;;2.03;;
4636;SDS011;2331;48.806;9.140;2023-12-20T07:36:07;3.75;;;2.20;;
4636;SDS011;2331;48.806;9.140;2023-12-20T07:38:34;7.72;;;1.85;;
4636;SDS011;2331;48.806;9.140;2023-12-20T07:41:01;2.15;;;1.65;;
4636;SDS011;2331;48.806;9.140;2023-12-20T07:43:27;2.40;;;1.80;;
4636;SDS011;2331;48.806;9.140;2023-12-20T07:45:54;2.17;;;1.88;;
4636;SDS011;2331;48.806;9.140;2023-12-20T07:48:21;2.97;;;2.10;;
4636;SDS011;2331;48.806;9.140;2023-12-20T07:50:49;2.50;;;1.90;;
4636;SDS011;2331;48.806;9.140;2023-12-20T07:53:15;2.72;;;2.50;;
4636;SDS011;2331;48.806;9.140;2023-12-20T07:55:42;2.83;;;2.15;;
4636;SDS011;2331;48.806;9.140;2023-12-20T07:58:09;4.70;;;2.42;;
4636;SDS011;2331;48.806;9.140;2023-12-20T08:00:35;2.60;;;2.20;;
4636;SDS011;2331;48.806;9.140;2023-12-20T08:03:03;3.88;;;1.90;;
4636;SDS011;2331;48.806;9.140;2023-12-20T08:05:30;6.85;;;2.85;;
4636;SDS011;2331;48.806;9.140;2023-12-20T08:07:58;4.45;;;2.53;;
4636;SDS011;2331;48.806;9.140;2023-12-20T08:10:25;3.42;;;2.50;;
4636;SDS011;2331;48.806;9.140;2023-12-20T08:12:54;4.28;;;2.40;;
4636;SDS011;2331;48.806;9.140;2023-12-20T08:15:21;4.40;;;2.63;;
4636;SDS011;2331;48.806;9.140;2023-12-20T08:17:48;3.95;;;2.75;;
4636;SDS011;2331;48.806;9.140;2023-12-20T08:20:16;3.53;;;2.38;;
4636;SDS011;2331;48.806;9.140;2023-12-20T08:22:42;3.80;;;2.40;;
4636;SDS011;2331;48.806;9.140;2023-12-20T08:25:10;4.63;;;2.55;;
4636;SDS011;2331;48.806;9.140;2023-12-20T08:27:39;3.15;;;2.47;;
4636;SDS011;2331;48.806;9.140;2023-12-20T08:30:06;5.00;;;2.40;;
4636;SDS011;2331;48.806;9.140;2023-12-20T08:32:34;3.85;;;2.13;;
4636;SDS011;2331;48.806;9.140;2023-12-20T08:35:01;3.40;;;2.72;;
4636;SDS011;2331;48.806;9.140;2023-12-20T08:37:29;3.83;;;2.83;;
4636;SDS011;2331;48.806;9.140;2023-12-20T08:39:56;3.58;;;2.35;;
4636;SDS011;2331;48.806;9.140;2023-12-20T08:42:24;4.65;;;2.47;;
4636;SDS011;2331;48.806;9.140;2023-12-20T08:44:56;3.80;;;2.47;;
4636;SDS011;2331;48.806;9.140;2023-12-20T08:47:22;2.65;;;2.30;;
4636;SDS011;2331;48.806;9.140;2023-12-20T08:49:49;6.07;;;2.88;;
4636;SDS011;2331;48.806;9.140;2023-12-20T08:52:16;5.47;;;2.50;;
4636;SDS011;2331;48.806;9.140;2023-12-20T08:54:42;4.15;;;2.05;;
4636;SDS011;2331;48.806;9.140;2023-12-20T08:57:09;4.70;;;2.65;;
4636;SDS011;2331;48.806;9.140;2023-12-20T08:59:37;3.67;;;2.22;;
4636;SDS011;2331;48.806;9.140;2023-12-20T09:02:04;4.80;;;2.92;;
4636;SDS011;2331;48.806;9.140;2023-12-20T09:04:31;2.90;;;2.40;;
4636;SDS011;2331;48.806;9.140;2023-12-20T09:06:59;4.78;;;2.78;;
4636;SDS011;2331;48.806;9.140;2023-12-20T09:09:27;3.42;;;2.75;;
4636;SDS011;2331;48.806;9.140;2023-12-20T09:11:53;4.18;;;2.40;;
4636;SDS011;2331;48.806;9.140;2023-12-20T09:14:21;6.45;;;2.92;;
4636;SDS011;2331;48.806;9.140;2023-12-20T09:16:49;4.70;;;2.55;;
4636;SDS011;2331;48.806;9.140;2023-12-20T09:19:16;5.15;;;2.90;;
4636;SDS011;2331;48.806;9.140;2023-12-20T09:21:43;5.05;;;2.70;;
4636;SDS011;2331;48.806;9.140;2023-12-20T09:24:09;3.10;;;2.40;;
4636;SDS011;2331;48.806;9.140;2023-12-20T09:26:36;5.88;;;3.05;;
4636;SDS011;2331;48.806;9.140;2023-12-20T09:29:04;2.60;;;2.00;;
4636;SDS011;2331;48.806;9.140;2023-12-20T09:31:32;4.75;;;2.70;;
4636;SDS011;2331;48.806;9.140;2023-12-20T09:34:00;4.85;;;2.15;;
4636;SDS011;2331;48.806;9.140;2023-12-20T09:36:28;5.88;;;2.10;;
4636;SDS011;2331;48.806;9.140;2023-12-20T09:38:56;5.00;;;2.15;;
4636;SDS011;2331;48.806;9.140;2023-12-20T09:41:23;6.07;;;2.20;;
4636;SDS011;2331;48.806;9.140;2023-12-20T09:43:51;6.90;;;2.00;;
4636;SDS011;2331;48.806;9.140;2023-12-20T09:46:20;6.30;;;2.45;;
4636;SDS011;2331;48.806;9.140;2023-12-20T09:48:52;2.40;;;1.50;;
4636;SDS011;2331;48.806;9.140;2023-12-20T09:51:21;3.28;;;1.35;;
4636;SDS011;2331;48.806;9.140;2023-12-20T09:53:48;4.25;;;1.63;;
4636;SDS011;2331;48.806;9.140;2023-12-20T09:56:16;5.30;;;2.03;;
4636;SDS011;2331;48.806;9.140;2023-12-20T09:58:43;5.82;;;2.00;;
4636;SDS011;2331;48.806;9.140;2023-12-20T10:01:10;4.85;;;1.67;;
4636;SDS011;2331;48.806;9.140;2023-12-20T10:03:37;4.55;;;1.83;;
4636;SDS011;2331;48.806;9.140;2023-12-20T10:06:07;6.15;;;2.00;;
4636;SDS011;2331;48.806;9.140;2023-12-20T10:08:35;5.00;;;1.92;;
4636;SDS011;2331;48.806;9.140;2023-12-20T10:11:01;4.95;;;1.50;;
4636;SDS011;2331;48.806;9.140;2023-12-20T10:13:29;8.50;;;1.85;;
4636;SDS011;2331;48.806;9.140;2023-12-20T10:15:55;5.70;;;2.00;;
4636;SDS011;2331;48.806;9.140;2023-12-20T10:18:22;6.88;;;1.80;;
4636;SDS011;2331;48.806;9.140;2023-12-20T10:20:49;4.97;;;1.98;;
4636;SDS011;2331;48.806;9.140;2023-12-20T10:23:16;7.72;;;1.60;;
4636;SDS011;2331;48.806;9.140;2023-12-20T10:25:47;4.00;;;1.85;;
4636;SDS011;2331;48.806;9.140;2023-12-20T10:28:22;4.15;;;1.70;;
4636;SDS011;2331;48.806;9.140;2023-12-20T10:30:52;4.40;;;1.70;;
4636;SDS011;2331;48.806;9.140;2023-12-20T10:33:23;8.57;;;2.03;;
4636;SDS011;2331;48.806;9.140;2023-12-20T10:35:51;5.28;;;2.00;;
4636;SDS011;2331;48.806;9.140;2023-12-20T10:38:19;4.28;;;1.63;;
4636;SDS011;2331;48.806;9.140;2023-12-20T10:40:47;7.97;;;2.33;;
4636;SDS011;2331;48.806;9.140;2023-12-20T10:43:15;6.75;;;1.85;;
4636;SDS011;2331;48.806;9.140;2023-12-20T10:45:41;7.28;;;2.15;;
4636;SDS011;2331;48.806;9.140;2023-12-20T10:48:09;3.78;;;1.70;;
4636;SDS011;2331;48.806;9.140;2023-12-20T10:50:36;6.50;;;1.80;;
4636;SDS011;2331;48.806;9.140;2023-12-20T10:53:05;6.60;;;1.95;;
4636;SDS011;2331;48.806;9.140;2023-12-20T10:55:33;5.70;;;2.00;;
4636;SDS011;2331;48.806;9.140;2023-12-20T10:58:01;3.78;;;1.80;;
4636;SDS011;2331;48.806;9.140;2023-12-20T11:00:32;4.88;;;1.70;;
4636;SDS011;2331;48.806;9.140;2023-12-20T11:03:01;5.03;;;2.00;;
4636;SDS011;2331;48.806;9.140;2023-12-20T11:05:31;8.38;;;2.20;;
4636;SDS011;2331;48.806;9.140;2023-12-20T11:08:06;3.15;;;1.42;;
4636;SDS011;2331;48.806;9.140;2023-12-20T11:10:37;7.32;;;1.75;;
4636;SDS011;2331;48.806;9.140;2023-12-20T11:13:12;4.70;;;1.80;;
4636;SDS011;2331;48.806;9.140;2023-12-20T11:15:46;5.00;;;1.83;;
4636;SDS011;2331;48.806;9.140;2023-12-20T11:18:13;6.93;;;2.00;;
4636;SDS011;2331;48.806;9.140;2023-12-20T11:20:41;6.05;;;1.52;;
4636;SDS011;2331;48.806;9.140;2023-12-20T11:23:11;4.10;;;1.77;;
4636;SDS011;2331;48.806;9.140;2023-12-20T11:25:46;6.35;;;2.05;;
4636;SDS011;2331;48.806;9.140;2023-12-20T11:28:15;3.47;;;1.80;;
4636;SDS011;2331;48.806;9.140;2023-12-20T11:30:46;10.27;;;2.35;;
4636;SDS011;2331;48.806;9.140;2023-12-20T11:33:14;6.25;;;1.75;;
4636;SDS011;2331;48.806;9.140;2023-12-20T11:35:41;4.68;;;2.00;;
4636;SDS011;2331;48.806;9.140;2023-12-20T11:38:08;6.82;;;1.90;;
4636;SDS011;2331;48.806;9.140;2023-12-20T11:40:35;4.30;;;1.83;;
4636;SDS011;2331;48.806;9.140;2023-12-20T11:43:03;3.83;;;1.63;;
4636;SDS011;2331;48.806;9.140;2023-12-20T11:45:31;4.97;;;1.70;;
4636;SDS011;2331;48.806;9.140;2023-12-20T11:47:59;12.85;;;2.30;;
4636;SDS011;2331;48.806;9.140;2023-12-20T11:50:27;9.52;;;2.15;;
4636;SDS011;2331;48.806;9.140;2023-12-20T11:52:55;4.28;;;2.10;;
4636;SDS011;2331;48.806;9.140;2023-12-20T11:55:22;10.95;;;1.85;;
4636;SDS011;2331;48.806;9.140;2023-12-20T11:57:49;6.95;;;1.88;;
4636;SDS011;2331;48.806;9.140;2023-12-20T12:00:17;5.00;;;2.10;;
4636;SDS011;2331;48.806;9.140;2023-12-20T12:02:56;5.43;;;2.03;;
4636;SDS011;2331;48.806;9.140;2023-12-20T12:05:23;5.00;;;1.65;;
4636;SDS011;2331;48.806;9.140;2023-12-20T12:07:50;7.43;;;1.70;;
4636;SDS011;2331;48.806;9.140;2023-12-20T12:10:17;7.75;;;2.10;;
4636;SDS011;2331;48.806;9.140;2023-12-20T12:12:44;8.77;;;1.77;;
4636;SDS011;2331;48.806;9.140;2023-12-20T12:15:10;3.85;;;1.60;;
4636;SDS011;2331;48.806;9.140;2023-12-20T12:17:37;10.52;;;2.00;;
4636;SDS011;2331;48.806;9.140;2023-12-20T12:20:06;3.60;;;1.42;;
4636;SDS011;2331;48.806;9.140;2023-12-20T12:22:34;3.80;;;1.65;;
4636;SDS011;2331;48.806;9.140;2023-12-20T12:25:09;3.83;;;1.60;;
4636;SDS011;2331;48.806;9.140;2023-12-20T12:27:36;6.40;;;1.98;;
4636;SDS011;2331;48.806;9.140;2023-12-20T12:30:05;3.45;;;1.67;;
4636;SDS011;2331;48.806;9.140;2023-12-20T12:32:33;4.93;;;2.15;;
4636;SDS011;2331;48.806;9.140;2023-12-20T12:35:00;5.45;;;1.70;;
4636;SDS011;2331;48.806;9.140;2023-12-20T12:37:29;6.75;;;1.52;;
4636;SDS011;2331;48.806;9.140;2023-12-20T12:39:57;2.83;;;1.50;;
4636;SDS011;2331;48.806;9.140;2023-12-20T12:42:23;4.65;;;1.90;;
4636;SDS011;2331;48.806;9.140;2023-12-20T12:44:53;5.75;;;2.13;;
4636;SDS011;2331;48.806;9.140;2023-12-20T12:47:20;3.30;;;1.77;;
4636;SDS011;2331;48.806;9.140;2023-12-20T12:49:47;6.95;;;2.33;;
4636;SDS011;2331;48.806;9.140;2023-12-20T12:52:16;7.28;;;1.98;;
4636;SDS011;2331;48.806;9.140;2023-12-20T12:54:44;5.35;;;1.77;;
4636;SDS011;2331;48.806;9.140;2023-12-20T12:57:12;7.80;;;2.42;;
4636;SDS011;2331;48.806;9.140;2023-12-20T12:59:39;7.40;;;2.17;;
4636;SDS011;2331;48.806;9.140;2023-12-20T13:02:05;7.25;;;1.80;;
4636;SDS011;2331;48.806;9.140;2023-12-20T13:04:33;3.67;;;1.50;;
4636;SDS011;2331;48.806;9.140;2023-12-20T13:06:59;10.55;;;1.70;;
4636;SDS011;2331;48.806;9.140;2023-12-20T13:09:26;10.27;;;2.15;;
4636;SDS011;2331;48.806;9.140;2023-12-20T13:11:54;4.72;;;1.65;;
4636;SDS011;2331;48.806;9.140;2023-12-20T13:14:21;7.90;;;1.85;;
4636;SDS011;2331;48.806;9.140;2023-12-20T13:16:47;7.30;;;2.10;;
4636;SDS011;2331;48.806;9.140;2023-12-20T13:19:14;4.50;;;1.70;;
4636;SDS011;2331;48.806;9.140;2023-12-20T13:21:41;5.47;;;1.80;;
4636;SDS011;2331;48.806;9.140;2023-12-20T13:24:07;8.50;;;1.60;;
4636;SDS011;2331;48.806;9.140;2023-12-20T13:26:34;5.85;;;1.50;;
4636;SDS011;2331;48.806;9.140;2023-12-20T13:29:02;5.07;;;1.60;;
4636;SDS011;2331;48.806;9.140;2023-12-20T13:31:29;5.30;;;1.70;;
4636;SDS011;2331;48.806;9.140;2023-12-20T13:33:56;3.58;;;1.30;;
4636;SDS011;2331;48.806;9.140;2023-12-20T13:36:22;5.40;;;1.65;;
4636;SDS011;2331;48.806;9.140;2023-12-20T13:38:49;6.43;;;2.08;;
4636;SDS011;2331;48.806;9.140;2023-12-20T13:41:16;4.88;;;1.42;;
4636;SDS011;2331;48.806;9.140;2023-12-20T13:43:43;7.43;;;1.70;;
4636;SDS011;2331;48.806;9.140;2023-12-20T13:46:11;4.63;;;1.63;;
4636;SDS011;2331;48.806;9.140;2023-12-20T13:48:39;5.63;;;1.77;;
4636;SDS011;2331;48.806;9.140;2023-12-20T13:51:06;5.88;;;1.50;;
4636;SDS011;2331;48.806;9.140;2023-12-20T13:53:36;3.45;;;1.42;;
4636;SDS011;2331;48.806;9.140;2023-12-20T13:56:03;5.25;;;1.40;;
4636;SDS011;2331;48.806;9.140;2023-12-20T13:58:31;6.30;;;1.60;;
4636;SDS011;2331;48.806;9.140;2023-12-20T14:00:58;7.28;;;1.83;;
4636;SDS011;2331;48.806;9.140;2023-12-20T14:03:25;6.20;;;1.40;;
4636;SDS011;2331;48.806;9.140;2023-12-20T14:05:51;4.60;;;1.45;;
4636;SDS011;2331;48.806;9.140;2023-12-20T14:08:18;2.92;;;1.52;;
4636;SDS011;2331;48.806;9.140;2023-12-20T14:10:45;6.03;;;1.60;;
4636;SDS011;2331;48.806;9.140;2023-12-20T14:13:11;4.28;;;1.40;;
4636;SDS011;2331;48.806;9.140;2023-12-20T14:15:38;6.53;;;1.90;;
4636;SDS011;2331;48.806;9.140;2023-12-20T14:18:05;3.92;;;1.90;;
4636;SDS011;2331;48.806;9.140;2023-12-20T14:20:34;6.15;;;1.75;;
4636;SDS011;2331;48.806;9.140;2023-12-20T14:23:01;4.28;;;1.70;;
4636;SDS011;2331;48.806;9.140;2023-12-20T14:25:27;6.28;;;1.90;;
4636;SDS011;2331;48.806;9.140;2023-12-20T14:27:54;4.90;;;1.60;;
4636;SDS011;2331;48.806;9.140;2023-12-20T14:30:22;7.50;;;1.45;;
4636;SDS011;2331;48.806;9.140;2023-12-20T14:32:49;6.25;;;1.58;;
4636;SDS011;2331;48.806;9.140;2023-12-20T14:35:15;7.90;;;1.90;;
4636;SDS011;2331;48.806;9.140;2023-12-20T14:37:45;5.43;;;1.52;;
4636;SDS011;2331;48.806;9.140;2023-12-20T14:40:12;4.28;;;1.60;;
4636;SDS011;2331;48.806;9.140;2023-12-20T14:42:41;14.18;;;2.30;;
4636;SDS011;2331;48.806;9.140;2023-12-20T14:45:08;3.90;;;1.80;;
4636;SDS011;2331;48.806;9.140;2023-12-20T14:47:35;6.07;;;1.80;;
4636;SDS011;2331;48.806;9.140;2023-12-20T14:50:02;8.23;;;1.95;;
4636;SDS011;2331;48.806;9.140;2023-12-20T14:52:29;6.30;;;1.75;;
4636;SDS011;2331;48.806;9.140;2023-12-20T14:54:58;6.55;;;1.70;;
4636;SDS011;2331;48.806;9.140;2023-12-20T14:57:25;6.43;;;2.03;;
4636;SDS011;2331;48.806;9.140;2023-12-20T14:59:52;3.50;;;1.75;;
4636;SDS011;2331;48.806;9.140;2023-12-20T15:02:19;4.70;;;1.45;;
4636;SDS011;2331;48.806;9.140;2023-12-20T15:04:45;4.63;;;2.10;;
4636;SDS011;2331;48.806;9.140;2023-12-20T15:07:12;3.90;;;1.42;;
4636;SDS011;2331;48.806;9.140;2023-12-20T15:09:39;4.18;;;1.50;;
4636;SDS011;2331;48.806;9.140;2023-12-20T15:12:12;5.95;;;1.52;;
4636;SDS011;2331;48.806;9.140;2023-12-20T15:14:38;3.63;;;1.30;;
4636;SDS011;2331;48.806;9.140;2023-12-20T15:17:05;5.13;;;2.00;;
4636;SDS011;2331;48.806;9.140;2023-12-20T15:19:32;5.05;;;1.70;;